Calgary Springbank Airport
CYBW : now visible

Airfield :











YOU CAN JOIN US ON...

 
LOGIN :

Register | Disclaimer

   EN    FR    IT 

 









Legend :    VFR   Marginal VFR   IFR   Intensive IFR   Very Intensive IFR
Visi :
Ceiling :
>= 8 km
>= 3000ft
5 to 8 km
1000 to 3000 ft
1500m to 5 km
500 to 1000 ft
800 to 1500m
200 to 500 ft
< 800m
< 200 ft
Symbols :   Thunderstorms  Fog  Heavy snow  Heavy precipitations  Wind > 20 kt






- Airport Elevation : 3937 ft
- IATA code : YBW


CYBW - Calgary Springbank

CURRENT METAR :
  • 261500Z AUTO 28012G18KT 9SM RA OVC025 05/03 A2975 RMK PCPN 3.0MM PAST HR SLP100

EXPIRED METARs :
  • 261400Z AUTO 30011G17KT 9SM -RA FEW033 BKN039 OVC050 06/04 A2973 RMK PCPN 1.0MM PAST HR SLP090
  • 261329Z AUTO 33016KT 9SM -RA OVC066 06/03 A2971 RMK PCPN 0.5MM PAST HR SLP088
  • 261300Z AUTO 35010KT 9SM BKN060 BKN074 OVC090 06/03 A2971 RMK PCPN 0.5MM PAST HR SLP084
  • 261258Z AUTO 35009KT 9SM BKN060 BKN074 OVC090 06/03 A2971 RMK ICE PAST HR PCPN 0.5MM PAST HR SLP087
  • 261216Z AUTO 33008KT 9SM FEW060 BKN090 04/02 A2970 RMK ICE PAST HR SLP088
  • 261200Z AUTO 33005KT 250V360 9SM BKN091 BKN140 03/02 A2969 RMK ICE SLP084
  • 261133Z AUTO 31005KT 9SM SCT130 BKN150 03/02 A2968 RMK ICE SLP087
  • 261100Z AUTO 33006KT 9SM OVC140 03/02 A2967 RMK ICE PAST HR SLP068

TAF AMD TAF CYBW
Valid from the 26 at 13:00 until the 27 at 00:00 UTC


261343Z 2613/2624 33015KT P6SM OVC140
TEMPO 2614/2617 P6SM -SHRA BKN060
FM261700 33010KT P6SM BKN080
FM262000 33012G22KT P6SM BKN060
TEMPO 2620/2624 P6SM -SHRA
PROB30 2620/2624 VRB15G25KT 5SM TSRA BKN040CB RMK FCST BASED ON AUTO OBS. NXT FCST BY 261800Z
CZEG FIR / North America



MET'MAP, your aeronautical weather chart ! - Copyright ORBIFLY December 2007 - Disclaimer

ORBIFLY MET'MAP TEAM :

Programming & Development : Alexandra Zaïnal
Original concept : Baudouin d'Aumeries
Technical & hardware support : Manuel Goepfert
Assistance : Marc-Olivier Méhu




SOURCES & CREDITS :

   NOAA       Earth
Advisory